sensor_id;sensor_type;location;lat;lon;timestamp;pressure;altitude;pressure_sealevel;temperature;humidity
6345;BME280;3205;42.666;23.264;2023-03-16T00:00:53;93516.19;;;4.21;100.00
6345;BME280;3205;42.666;23.264;2023-03-16T00:03:19;93515.44;;;4.21;100.00
6345;BME280;3205;42.666;23.264;2023-03-16T00:05:45;93519.47;;;4.18;100.00
6345;BME280;3205;42.666;23.264;2023-03-16T00:08:13;93523.19;;;4.09;100.00
6345;BME280;3205;42.666;23.264;2023-03-16T00:10:40;93528.72;;;4.07;100.00
6345;BME280;3205;42.666;23.264;2023-03-16T00:13:11;93532.56;;;4.10;100.00
6345;BME280;3205;42.666;23.264;2023-03-16T00:15:37;93530.25;;;4.08;100.00
6345;BME280;3205;42.666;23.264;2023-03-16T00:18:04;93533.19;;;4.07;100.00
6345;BME280;3205;42.666;23.264;2023-03-16T00:20:30;93538.88;;;4.09;100.00
6345;BME280;3205;42.666;23.264;2023-03-16T00:22:58;93532.56;;;4.10;100.00
6345;BME280;3205;42.666;23.264;2023-03-16T00:25:25;93537.06;;;4.01;100.00
6345;BME280;3205;42.666;23.264;2023-03-16T00:27:52;93541.97;;;4.02;100.00
6345;BME280;3205;42.666;23.264;2023-03-16T00:30:18;93539.69;;;3.92;100.00
6345;BME280;3205;42.666;23.264;2023-03-16T00:32:44;93547.81;;;3.91;100.00
6345;BME280;3205;42.666;23.264;2023-03-16T00:35:11;93549.72;;;3.82;100.00
6345;BME280;3205;42.666;23.264;2023-03-16T00:37:37;93550.03;;;3.72;100.00
6345;BME280;3205;42.666;23.264;2023-03-16T00:40:05;93543.88;;;3.68;100.00
6345;BME280;3205;42.666;23.264;2023-03-16T00:42:33;93544.94;;;3.75;100.00
6345;BME280;3205;42.666;23.264;2023-03-16T00:44:59;93548.16;;;3.81;100.00
6345;BME280;3205;42.666;23.264;2023-03-16T00:47:29;93548.16;;;3.81;100.00
6345;BME280;3205;42.666;23.264;2023-03-16T00:49:56;93562.91;;;3.77;100.00
6345;BME280;3205;42.666;23.264;2023-03-16T00:52:22;93557.38;;;3.70;100.00
6345;BME280;3205;42.666;23.264;2023-03-16T00:54:49;93560.16;;;3.65;100.00
6345;BME280;3205;42.666;23.264;2023-03-16T00:57:36;93556.19;;;3.76;100.00
6345;BME280;3205;42.666;23.264;2023-03-16T01:00:03;93560.31;;;3.68;100.00
6345;BME280;3205;42.666;23.264;2023-03-16T01:02:37;93551.41;;;3.69;100.00
6345;BME280;3205;42.666;23.264;2023-03-16T01:05:04;93557.25;;;3.66;100.00
6345;BME280;3205;42.666;23.264;2023-03-16T01:07:30;93555.72;;;3.57;100.00
6345;BME280;3205;42.666;23.264;2023-03-16T01:09:56;93559.13;;;3.49;100.00
6345;BME280;3205;42.666;23.264;2023-03-16T01:12:22;93559.56;;;3.51;100.00
6345;BME280;3205;42.666;23.264;2023-03-16T01:14:49;93557.59;;;3.48;100.00
6345;BME280;3205;42.666;23.264;2023-03-16T01:17:16;93556.34;;;3.37;100.00
6345;BME280;3205;42.666;23.264;2023-03-16T01:19:43;93561.13;;;3.35;100.00
6345;BME280;3205;42.666;23.264;2023-03-16T01:22:10;93562.97;;;3.26;100.00
6345;BME280;3205;42.666;23.264;2023-03-16T01:24:37;93562.50;;;3.24;100.00
6345;BME280;3205;42.666;23.264;2023-03-16T01:27:03;93568.19;;;3.26;100.00
6345;BME280;3205;42.666;23.264;2023-03-16T01:29:30;93565.25;;;3.19;100.00
6345;BME280;3205;42.666;23.264;2023-03-16T01:31:58;93561.69;;;3.15;100.00
6345;BME280;3205;42.666;23.264;2023-03-16T01:34:24;93566.94;;;3.15;100.00
6345;BME280;3205;42.666;23.264;2023-03-16T01:36:50;93569.09;;;3.13;100.00
6345;BME280;3205;42.666;23.264;2023-03-16T01:39:17;93571.22;;;3.11;100.00
6345;BME280;3205;42.666;23.264;2023-03-16T01:41:44;93573.41;;;3.18;100.00
6345;BME280;3205;42.666;23.264;2023-03-16T01:44:12;93570.63;;;3.14;100.00
6345;BME280;3205;42.666;23.264;2023-03-16T01:46:38;93567.56;;;3.12;100.00
6345;BME280;3205;42.666;23.264;2023-03-16T01:49:09;93575.69;;;3.19;100.00
6345;BME280;3205;42.666;23.264;2023-03-16T01:51:39;93573.84;;;3.20;100.00
6345;BME280;3205;42.666;23.264;2023-03-16T01:54:14;93578.78;;;3.21;100.00
6345;BME280;3205;42.666;23.264;2023-03-16T01:56:50;93572.19;;;3.24;100.00
6345;BME280;3205;42.666;23.264;2023-03-16T01:59:20;93573.41;;;3.26;100.00
6345;BME280;3205;42.666;23.264;2023-03-16T02:01:47;93572.78;;;3.29;100.00
6345;BME280;3205;42.666;23.264;2023-03-16T02:04:28;93580.75;;;3.24;100.00
6345;BME280;3205;42.666;23.264;2023-03-16T02:06:57;93591.22;;;3.16;100.00
6345;BME280;3205;42.666;23.264;2023-03-16T02:09:24;93593.66;;;3.21;100.00
6345;BME280;3205;42.666;23.264;2023-03-16T02:11:52;93594.72;;;3.20;100.00
6345;BME280;3205;42.666;23.264;2023-03-16T02:14:19;93601.19;;;3.22;100.00
6345;BME280;3205;42.666;23.264;2023-03-16T02:16:45;93594.59;;;3.25;100.00
6345;BME280;3205;42.666;23.264;2023-03-16T02:19:21;93603.66;;;3.27;100.00
6345;BME280;3205;42.666;23.264;2023-03-16T02:21:56;93610.72;;;3.18;100.00
6345;BME280;3205;42.666;23.264;2023-03-16T02:24:26;93603.34;;;3.20;100.00
6345;BME280;3205;42.666;23.264;2023-03-16T02:26:56;93607.94;;;3.06;100.00
6345;BME280;3205;42.666;23.264;2023-03-16T02:29:39;93610.69;;;3.01;100.00
6345;BME280;3205;42.666;23.264;2023-03-16T02:32:06;93609.59;;;3.02;100.00
6345;BME280;3205;42.666;23.264;2023-03-16T02:34:35;93615.88;;;2.93;100.00
6345;BME280;3205;42.666;23.264;2023-03-16T02:37:05;93624.31;;;2.90;100.00
6345;BME280;3205;42.666;23.264;2023-03-16T02:39:32;93627.09;;;2.93;100.00
6345;BME280;3205;42.666;23.264;2023-03-16T02:41:59;93625.56;;;2.92;100.00
6345;BME280;3205;42.666;23.264;2023-03-16T02:44:27;93630.03;;;3.00;100.00
6345;BME280;3205;42.666;23.264;2023-03-16T02:46:57;93627.84;;;2.94;100.00
6345;BME280;3205;42.666;23.264;2023-03-16T02:49:35;93631.38;;;2.90;100.00
6345;BME280;3205;42.666;23.264;2023-03-16T02:52:04;93635.03;;;2.89;100.00
6345;BME280;3205;42.666;23.264;2023-03-16T02:54:33;93623.34;;;2.78;100.00
6345;BME280;3205;42.666;23.264;2023-03-16T02:57:01;93631.31;;;2.64;100.00
6345;BME280;3205;42.666;23.264;2023-03-16T02:59:28;93633.78;;;2.69;100.00
6345;BME280;3205;42.666;23.264;2023-03-16T03:02:03;93637.91;;;2.70;100.00
6345;BME280;3205;42.666;23.264;2023-03-16T03:04:31;93635.44;;;2.65;100.00
6345;BME280;3205;42.666;23.264;2023-03-16T03:06:58;93634.16;;;2.54;100.00
6345;BME280;3205;42.666;23.264;2023-03-16T03:09:30;93631.13;;;2.61;100.00
6345;BME280;3205;42.666;23.264;2023-03-16T03:11:58;93638.00;;;2.57;100.00
6345;BME280;3205;42.666;23.264;2023-03-16T03:14:24;93644.91;;;2.53;100.00
6345;BME280;3205;42.666;23.264;2023-03-16T03:16:53;93654.28;;;2.54;100.00
6345;BME280;3205;42.666;23.264;2023-03-16T03:19:20;93651.03;;;2.48;100.00
6345;BME280;3205;42.666;23.264;2023-03-16T03:21:47;93665.47;;;2.54;100.00
6345;BME280;3205;42.666;23.264;2023-03-16T03:24:13;93654.88;;;2.51;100.00
6345;BME280;3205;42.666;23.264;2023-03-16T03:26:39;93672.06;;;2.52;100.00
6345;BME280;3205;42.666;23.264;2023-03-16T03:29:06;93672.47;;;2.45;100.00
6345;BME280;3205;42.666;23.264;2023-03-16T03:31:32;93679.19;;;2.38;100.00
6345;BME280;3205;42.666;23.264;2023-03-16T03:33:58;93682.22;;;2.31;100.00
6345;BME280;3205;42.666;23.264;2023-03-16T03:36:25;93669.75;;;2.20;100.00
6345;BME280;3205;42.666;23.264;2023-03-16T03:38:51;93679.56;;;2.23;100.00
6345;BME280;3205;42.666;23.264;2023-03-16T03:41:19;93680.16;;;2.20;100.00
6345;BME280;3205;42.666;23.264;2023-03-16T03:43:46;93672.09;;;2.08;100.00
6345;BME280;3205;42.666;23.264;2023-03-16T03:46:12;93676.41;;;2.13;100.00
6345;BME280;3205;42.666;23.264;2023-03-16T03:48:39;93684.41;;;2.16;100.00
6345;BME280;3205;42.666;23.264;2023-03-16T03:51:05;93681.22;;;2.19;100.00
6345;BME280;3205;42.666;23.264;2023-03-16T03:53:32;93687.50;;;2.18;100.00
6345;BME280;3205;42.666;23.264;2023-03-16T03:55:58;93682.47;;;2.21;100.00
6345;BME280;3205;42.666;23.264;2023-03-16T03:58:25;93695.41;;;2.35;100.00
6345;BME280;3205;42.666;23.264;2023-03-16T04:00:52;93701.59;;;2.39;100.00
6345;BME280;3205;42.666;23.264;2023-03-16T04:03:18;93699.69;;;2.53;100.00
6345;BME280;3205;42.666;23.264;2023-03-16T04:05:44;93696.44;;;2.56;100.00
6345;BME280;3205;42.666;23.264;2023-03-16T04:08:10;93704.78;;;2.66;100.00
6345;BME280;3205;42.666;23.264;2023-03-16T04:10:37;93695.81;;;2.81;100.00
6345;BME280;3205;42.666;23.264;2023-03-16T04:13:03;93691.19;;;2.78;100.00
6345;BME280;3205;42.666;23.264;2023-03-16T04:15:29;93691.66;;;2.80;100.00
6345;BME280;3205;42.666;23.264;2023-03-16T04:17:57;93699.31;;;2.68;100.00
6345;BME280;3205;42.666;23.264;2023-03-16T04:20:23;93700.63;;;2.65;100.00
6345;BME280;3205;42.666;23.264;2023-03-16T04:22:50;93704.75;;;2.58;100.00
6345;BME280;3205;42.666;23.264;2023-03-16T04:25:23;93707.94;;;2.55;100.00
6345;BME280;3205;42.666;23.264;2023-03-16T04:27:50;93714.50;;;2.44;100.00
6345;BME280;3205;42.666;23.264;2023-03-16T04:30:16;93719.22;;;2.42;100.00
6345;BME280;3205;42.666;23.264;2023-03-16T04:32:43;93721.38;;;2.40;100.00
6345;BME280;3205;42.666;23.264;2023-03-16T04:35:09;93722.84;;;2.32;100.00
6345;BME280;3205;42.666;23.264;2023-03-16T04:37:35;93729.63;;;2.33;100.00
6345;BME280;3205;42.666;23.264;2023-03-16T04:40:03;93729.31;;;2.35;100.00
6345;BME280;3205;42.666;23.264;2023-03-16T04:42:36;93733.09;;;2.29;100.00
6345;BME280;3205;42.666;23.264;2023-03-16T04:45:03;93744.41;;;2.24;100.00
6345;BME280;3205;42.666;23.264;2023-03-16T04:47:29;93755.16;;;2.23;100.00
6345;BME280;3205;42.666;23.264;2023-03-16T04:49:58;93751.19;;;2.25;100.00
6345;BME280;3205;42.666;23.264;2023-03-16T04:52:24;93753.59;;;2.22;100.00
6345;BME280;3205;42.666;23.264;2023-03-16T04:54:50;93748.88;;;2.24;100.00
6345;BME280;3205;42.666;23.264;2023-03-16T04:57:16;93755.16;;;2.23;100.00
6345;BME280;3205;42.666;23.264;2023-03-16T04:59:47;93761.16;;;2.23;100.00
6345;BME280;3205;42.666;23.264;2023-03-16T05:02:13;93770.97;;;2.26;100.00
6345;BME280;3205;42.666;23.264;2023-03-16T05:04:41;93764.03;;;2.22;100.00
6345;BME280;3205;42.666;23.264;2023-03-16T05:07:07;93763.75;;;2.23;100.00
6345;BME280;3205;42.666;23.264;2023-03-16T05:09:33;93768.84;;;2.28;100.00
6345;BME280;3205;42.666;23.264;2023-03-16T05:11:59;93773.47;;;2.31;100.00
6345;BME280;3205;42.666;23.264;2023-03-16T05:14:25;93770.09;;;2.31;100.00
6345;BME280;3205;42.666;23.264;2023-03-16T05:16:52;93770.84;;;2.31;100.00
6345;BME280;3205;42.666;23.264;2023-03-16T05:19:18;93775.78;;;2.33;100.00
6345;BME280;3205;42.666;23.264;2023-03-16T05:21:44;93781.63;;;2.38;100.00
6345;BME280;3205;42.666;23.264;2023-03-16T05:24:11;93772.88;;;2.34;100.00
6345;BME280;3205;42.666;23.264;2023-03-16T05:26:37;93783.78;;;2.36;100.00
6345;BME280;3205;42.666;23.264;2023-03-16T05:29:03;93786.09;;;2.38;100.00
6345;BME280;3205;42.666;23.264;2023-03-16T05:31:31;93786.41;;;2.36;100.00
6345;BME280;3205;42.666;23.264;2023-03-16T05:33:58;93796.81;;;2.36;100.00
6345;BME280;3205;42.666;23.264;2023-03-16T05:36:25;93796.53;;;2.38;100.00
6345;BME280;3205;42.666;23.264;2023-03-16T05:38:51;93808.31;;;2.35;100.00
6345;BME280;3205;42.666;23.264;2023-03-16T05:41:17;93805.72;;;2.35;100.00
6345;BME280;3205;42.666;23.264;2023-03-16T05:43:45;93805.53;;;2.32;100.00
6345;BME280;3205;42.666;23.264;2023-03-16T05:46:12;93806.97;;;2.38;100.00
6345;BME280;3205;42.666;23.264;2023-03-16T05:48:38;93808.56;;;2.47;100.00
6345;BME280;3205;42.666;23.264;2023-03-16T05:51:04;93812.34;;;2.41;100.00
6345;BME280;3205;42.666;23.264;2023-03-16T05:53:31;93813.41;;;2.40;100.00
6345;BME280;3205;42.666;23.264;2023-03-16T05:55:57;93818.69;;;2.49;100.00
6345;BME280;3205;42.666;23.264;2023-03-16T05:58:24;93822.97;;;2.45;100.00
6345;BME280;3205;42.666;23.264;2023-03-16T06:00:50;93821.25;;;2.62;100.00
6345;BME280;3205;42.666;23.264;2023-03-16T06:03:16;93829.84;;;2.63;100.00
6345;BME280;3205;42.666;23.264;2023-03-16T06:05:42;93823.44;;;2.69;100.00
6345;BME280;3205;42.666;23.264;2023-03-16T06:08:08;93829.31;;;2.74;100.00
6345;BME280;3205;42.666;23.264;2023-03-16T06:10:35;93830.78;;;2.89;100.00
6345;BME280;3205;42.666;23.264;2023-03-16T06:13:01;93833.44;;;2.97;100.00
6345;BME280;3205;42.666;23.264;2023-03-16T06:15:27;93839.31;;;3.02;100.00
6345;BME280;3205;42.666;23.264;2023-03-16T06:17:55;93836.59;;;3.07;100.00
6345;BME280;3205;42.666;23.264;2023-03-16T06:20:21;93841.31;;;3.05;100.00
6345;BME280;3205;42.666;23.264;2023-03-16T06:22:47;93840.09;;;3.03;100.00
6345;BME280;3205;42.666;23.264;2023-03-16T06:25:14;93848.25;;;3.10;100.00
6345;BME280;3205;42.666;23.264;2023-03-16T06:27:41;93855.03;;;3.11;100.00
6345;BME280;3205;42.666;23.264;2023-03-16T06:30:09;93854.13;;;3.15;100.00
6345;BME280;3205;42.666;23.264;2023-03-16T06:32:36;93852.69;;;3.09;100.00
6345;BME280;3205;42.666;23.264;2023-03-16T06:35:04;93869.69;;;2.98;100.00
6345;BME280;3205;42.666;23.264;2023-03-16T06:37:30;93873.53;;;3.01;100.00
6345;BME280;3205;42.666;23.264;2023-03-16T06:39:56;93874.59;;;3.00;100.00
6345;BME280;3205;42.666;23.264;2023-03-16T06:42:22;93875.03;;;2.93;100.00
6345;BME280;3205;42.666;23.264;2023-03-16T06:44:49;93888.78;;;2.86;100.00
6345;BME280;3205;42.666;23.264;2023-03-16T06:47:17;93897.75;;;2.93;100.00
6345;BME280;3205;42.666;23.264;2023-03-16T06:49:43;93894.38;;;2.92;100.00
6345;BME280;3205;42.666;23.264;2023-03-16T06:52:11;93901.19;;;3.02;100.00
6345;BME280;3205;42.666;23.264;2023-03-16T06:54:38;93898.88;;;3.00;100.00
6345;BME280;3205;42.666;23.264;2023-03-16T06:57:05;93906.28;;;3.07;100.00
6345;BME280;3205;42.666;23.264;2023-03-16T06:59:31;93902.13;;;3.06;100.00
6345;BME280;3205;42.666;23.264;2023-03-16T07:01:58;93902.06;;;3.19;100.00
6345;BME280;3205;42.666;23.264;2023-03-16T07:04:24;93913.28;;;3.20;100.00
6345;BME280;3205;42.666;23.264;2023-03-16T07:06:50;93916.53;;;3.25;100.00
6345;BME280;3205;42.666;23.264;2023-03-16T07:09:16;93917.25;;;3.39;100.00
6345;BME280;3205;42.666;23.264;2023-03-16T07:11:42;93917.28;;;3.48;100.00
6345;BME280;3205;42.666;23.264;2023-03-16T07:14:09;93923.56;;;3.47;100.00
6345;BME280;3205;42.666;23.264;2023-03-16T07:16:36;93925.59;;;3.50;100.00
6345;BME280;3205;42.666;23.264;2023-03-16T07:19:03;93930.69;;;3.55;100.00
6345;BME280;3205;42.666;23.264;2023-03-16T07:21:29;93930.09;;;3.58;100.00
6345;BME280;3205;42.666;23.264;2023-03-16T07:24:03;93931.94;;;3.57;100.00
6345;BME280;3205;42.666;23.264;2023-03-16T07:26:29;93931.50;;;3.64;100.00
6345;BME280;3205;42.666;23.264;2023-03-16T07:28:56;93936.44;;;3.65;100.00
6345;BME280;3205;42.666;23.264;2023-03-16T07:31:22;93934.97;;;3.81;100.00
6345;BME280;3205;42.666;23.264;2023-03-16T07:33:49;93949.88;;;3.80;100.00
6345;BME280;3205;42.666;23.264;2023-03-16T07:36:15;93946.84;;;3.87;100.00
6345;BME280;3205;42.666;23.264;2023-03-16T07:38:41;93949.06;;;4.02;100.00
6345;BME280;3205;42.666;23.264;2023-03-16T07:41:08;93950.94;;;4.10;100.00
6345;BME280;3205;42.666;23.264;2023-03-16T07:43:34;93945.28;;;4.25;100.00
6345;BME280;3205;42.666;23.264;2023-03-16T07:46:00;93952.69;;;4.23;100.00
6345;BME280;3205;42.666;23.264;2023-03-16T07:48:26;93960.22;;;4.24;100.00
6345;BME280;3205;42.666;23.264;2023-03-16T07:50:52;93964.38;;;4.25;100.00
6345;BME280;3205;42.666;23.264;2023-03-16T07:53:20;93960.84;;;4.30;100.00
6345;BME280;3205;42.666;23.264;2023-03-16T07:55:47;93967.19;;;4.37;100.00
6345;BME280;3205;42.666;23.264;2023-03-16T07:58:13;93968.56;;;4.43;100.00
6345;BME280;3205;42.666;23.264;2023-03-16T08:00:39;93963.84;;;4.53;100.00
6345;BME280;3205;42.666;23.264;2023-03-16T08:03:06;93969.19;;;4.40;100.00
6345;BME280;3205;42.666;23.264;2023-03-16T08:05:33;93965.84;;;4.56;100.00
6345;BME280;3205;42.666;23.264;2023-03-16T08:07:59;93970.03;;;4.74;100.00
6345;BME280;3205;42.666;23.264;2023-03-16T08:10:27;93966.50;;;4.79;100.00
6345;BME280;3205;42.666;23.264;2023-03-16T08:12:53;93966.06;;;4.94;100.00
6345;BME280;3205;42.666;23.264;2023-03-16T08:15:19;93976.38;;;5.07;100.00
6345;BME280;3205;42.666;23.264;2023-03-16T08:17:46;93985.47;;;5.18;100.00
6345;BME280;3205;42.666;23.264;2023-03-16T08:20:13;93975.59;;;5.40;100.00
6345;BME280;3205;42.666;23.264;2023-03-16T08:22:40;93991.03;;;5.33;100.00
6345;BME280;3205;42.666;23.264;2023-03-16T08:25:07;93989.00;;;5.30;100.00
6345;BME280;3205;42.666;23.264;2023-03-16T08:27:35;93996.72;;;5.44;100.00
6345;BME280;3205;42.666;23.264;2023-03-16T08:30:03;93986.84;;;5.58;100.00
6345;BME280;3205;42.666;23.264;2023-03-16T08:32:30;94001.63;;;5.79;100.00
6345;BME280;3205;42.666;23.264;2023-03-16T08:34:56;93997.19;;;5.80;100.00
6345;BME280;3205;42.666;23.264;2023-03-16T08:37:23;94007.66;;;5.88;100.00
6345;BME280;3205;42.666;23.264;2023-03-16T08:39:49;94006.66;;;6.09;100.00
6345;BME280;3205;42.666;23.264;2023-03-16T08:42:16;94013.09;;;6.29;100.00
6345;BME280;3205;42.666;23.264;2023-03-16T08:44:42;94006.41;;;6.68;100.00
6345;BME280;3205;42.666;23.264;2023-03-16T08:47:09;94002.44;;;6.91;100.00
6345;BME280;3205;42.666;23.264;2023-03-16T08:49:36;94002.59;;;7.15;100.00
6345;BME280;3205;42.666;23.264;2023-03-16T08:52:03;94011.06;;;7.21;100.00
6345;BME280;3205;42.666;23.264;2023-03-16T08:54:29;94025.38;;;7.03;100.00
6345;BME280;3205;42.666;23.264;2023-03-16T08:56:56;94026.34;;;6.98;100.00
6345;BME280;3205;42.666;23.264;2023-03-16T08:59:23;94028.31;;;7.01;100.00
6345;BME280;3205;42.666;23.264;2023-03-16T09:01:50;94021.31;;;7.14;100.00
6345;BME280;3205;42.666;23.264;2023-03-16T09:04:16;94023.41;;;7.20;100.00
6345;BME280;3205;42.666;23.264;2023-03-16T09:06:42;94023.81;;;7.10;100.00
6345;BME280;3205;42.666;23.264;2023-03-16T09:09:08;94034.66;;;7.00;100.00
6345;BME280;3205;42.666;23.264;2023-03-16T09:11:35;94031.91;;;6.97;100.00
6345;BME280;3205;42.666;23.264;2023-03-16T09:14:01;94029.88;;;7.02;100.00
6345;BME280;3205;42.666;23.264;2023-03-16T09:16:28;94037.69;;;6.90;100.00
6345;BME280;3205;42.666;23.264;2023-03-16T09:18:56;94027.66;;;6.84;100.00
6345;BME280;3205;42.666;23.264;2023-03-16T09:21:22;94039.09;;;6.79;100.00
6345;BME280;3205;42.666;23.264;2023-03-16T09:23:48;94040.09;;;6.66;100.00
6345;BME280;3205;42.666;23.264;2023-03-16T09:26:15;94037.56;;;6.50;100.00
6345;BME280;3205;42.666;23.264;2023-03-16T09:28:41;94040.00;;;6.55;100.00
6345;BME280;3205;42.666;23.264;2023-03-16T09:31:08;94033.09;;;6.42;100.00
6345;BME280;3205;42.666;23.264;2023-03-16T09:33:34;94032.34;;;6.33;100.00
6345;BME280;3205;42.666;23.264;2023-03-16T09:36:02;94043.06;;;6.19;100.00
6345;BME280;3205;42.666;23.264;2023-03-16T09:38:29;94041.69;;;6.13;100.00
6345;BME280;3205;42.666;23.264;2023-03-16T09:40:58;94036.63;;;5.91;100.00
6345;BME280;3205;42.666;23.264;2023-03-16T09:43:39;94037.41;;;5.84;100.00
6345;BME280;3205;42.666;23.264;2023-03-16T09:46:11;94041.13;;;5.66;100.00
6345;BME280;3205;42.666;23.264;2023-03-16T09:48:40;94032.94;;;5.59;100.00
6345;BME280;3205;42.666;23.264;2023-03-16T09:51:13;94045.56;;;5.74;100.00
6345;BME280;3205;42.666;23.264;2023-03-16T09:53:43;94043.91;;;5.69;100.00
6345;BME280;3205;42.666;23.264;2023-03-16T09:56:16;94037.75;;;5.82;100.00
6345;BME280;3205;42.666;23.264;2023-03-16T09:58:45;94033.22;;;6.08;100.00
6345;BME280;3205;42.666;23.264;2023-03-16T10:01:15;94035.22;;;6.02;100.00
6345;BME280;3205;42.666;23.264;2023-03-16T10:03:57;94036.13;;;6.15;100.00
6345;BME280;3205;42.666;23.264;2023-03-16T10:06:27;94039.81;;;6.14;100.00
6345;BME280;3205;42.666;23.264;2023-03-16T10:09:02;94043.41;;;6.01;100.00
6345;BME280;3205;42.666;23.264;2023-03-16T10:11:31;94048.03;;;5.95;100.00
6345;BME280;3205;42.666;23.264;2023-03-16T10:14:08;94033.69;;;6.01;100.00
6345;BME280;3205;42.666;23.264;2023-03-16T10:16:39;94043.44;;;5.92;100.00
6345;BME280;3205;42.666;23.264;2023-03-16T10:19:12;94038.47;;;5.99;100.00
6345;BME280;3205;42.666;23.264;2023-03-16T10:21:43;94045.59;;;5.90;100.00
6345;BME280;3205;42.666;23.264;2023-03-16T10:24:17;94048.03;;;5.95;100.00
6345;BME280;3205;42.666;23.264;2023-03-16T10:26:49;94045.41;;;6.12;100.00
6345;BME280;3205;42.666;23.264;2023-03-16T10:29:19;94042.41;;;6.22;100.00
6345;BME280;3205;42.666;23.264;2023-03-16T10:31:45;94046.59;;;6.23;100.00
6345;BME280;3205;42.666;23.264;2023-03-16T10:34:12;94043.78;;;6.28;100.00
6345;BME280;3205;42.666;23.264;2023-03-16T10:36:43;94044.78;;;6.07;100.00
6345;BME280;3205;42.666;23.264;2023-03-16T10:39:12;94042.91;;;6.07;100.00
6345;BME280;3205;42.666;23.264;2023-03-16T10:41:41;94041.09;;;5.99;100.00
6345;BME280;3205;42.666;23.264;2023-03-16T10:44:10;94042.63;;;6.00;100.00
6345;BME280;3205;42.666;23.264;2023-03-16T10:46:38;94038.44;;;6.16;100.00
6345;BME280;3205;42.666;23.264;2023-03-16T10:49:05;94040.16;;;6.12;100.00
6345;BME280;3205;42.666;23.264;2023-03-16T10:51:43;94039.31;;;6.29;100.00
6345;BME280;3205;42.666;23.264;2023-03-16T10:54:14;94042.28;;;6.19;100.00
6345;BME280;3205;42.666;23.264;2023-03-16T10:56:41;94045.81;;;6.31;100.00
6345;BME280;3205;42.666;23.264;2023-03-16T10:59:27;94043.19;;;6.31;100.00
6345;BME280;3205;42.666;23.264;2023-03-16T11:01:54;94055.88;;;6.21;100.00
6345;BME280;3205;42.666;23.264;2023-03-16T11:04:21;94048.59;;;6.18;100.00
6345;BME280;3205;42.666;23.264;2023-03-16T11:06:52;94049.84;;;6.12;100.00
6345;BME280;3205;42.666;23.264;2023-03-16T11:09:22;94044.94;;;6.10;100.00
6345;BME280;3205;42.666;23.264;2023-03-16T11:11:50;94039.84;;;6.05;100.00
6345;BME280;3205;42.666;23.264;2023-03-16T11:14:19;94048.66;;;6.01;100.00
6345;BME280;3205;42.666;23.264;2023-03-16T11:16:50;94045.88;;;5.97;100.00
6345;BME280;3205;42.666;23.264;2023-03-16T11:19:22;94046.38;;;5.83;100.00
6345;BME280;3205;42.666;23.264;2023-03-16T11:21:54;94051.13;;;5.72;100.00
6345;BME280;3205;42.666;23.264;2023-03-16T11:24:25;94054.81;;;5.71;100.00
6345;BME280;3205;42.666;23.264;2023-03-16T11:26:54;94049.28;;;5.73;100.00
6345;BME280;3205;42.666;23.264;2023-03-16T11:29:24;94048.22;;;5.82;100.00
6345;BME280;3205;42.666;23.264;2023-03-16T11:31:53;94055.78;;;5.84;100.00
6345;BME280;3205;42.666;23.264;2023-03-16T11:34:25;94049.47;;;5.76;100.00
6345;BME280;3205;42.666;23.264;2023-03-16T11:36:54;94041.28;;;5.78;100.00
6345;BME280;3205;42.666;23.264;2023-03-16T11:39:36;94049.47;;;5.76;100.00
6345;BME280;3205;42.666;23.264;2023-03-16T11:42:26;94055.16;;;5.78;100.00
6345;BME280;3205;42.666;23.264;2023-03-16T11:44:56;94056.53;;;5.59;100.00
6345;BME280;3205;42.666;23.264;2023-03-16T11:50:46;94050.38;;;5.46;100.00
6345;BME280;3205;42.666;23.264;2023-03-16T11:53:26;94057.47;;;5.46;100.00
6345;BME280;3205;42.666;23.264;2023-03-16T11:56:04;94049.75;;;5.41;100.00
6345;BME280;3205;42.666;23.264;2023-03-16T11:58:48;94059.63;;;5.35;100.00
6345;BME280;3205;42.666;23.264;2023-03-16T12:01:21;94059.16;;;5.25;100.00
6345;BME280;3205;42.666;23.264;2023-03-16T12:04:17;94071.78;;;5.31;100.00
6345;BME280;3205;42.666;23.264;2023-03-16T12:06:55;94069.16;;;5.31;100.00
6345;BME280;3205;42.666;23.264;2023-03-16T12:12:36;94067.00;;;5.33;100.00
6345;BME280;3205;42.666;23.264;2023-03-16T12:15:25;94073.78;;;5.26;100.00
6345;BME280;3205;42.666;23.264;2023-03-16T12:17:59;94079.78;;;5.18;100.00
6345;BME280;3205;42.666;23.264;2023-03-16T12:20:29;94074.09;;;5.24;100.00
6345;BME280;3205;42.666;23.264;2023-03-16T12:23:02;94088.84;;;5.12;100.00
6345;BME280;3205;42.666;23.264;2023-03-16T12:25:33;94089.31;;;5.14;100.00
6345;BME280;3205;42.666;23.264;2023-03-16T12:28:05;94088.56;;;5.13;100.00
6345;BME280;3205;42.666;23.264;2023-03-16T12:30:42;94092.56;;;5.11;100.00
6345;BME280;3205;42.666;23.264;2023-03-16T12:33:19;94095.78;;;5.08;100.00
6345;BME280;3205;42.666;23.264;2023-03-16T12:35:53;94093.47;;;4.98;100.00
6345;BME280;3205;42.666;23.264;2023-03-16T12:38:41;94096.19;;;4.85;100.00
6345;BME280;3205;42.666;23.264;2023-03-16T12:41:17;94099.88;;;4.92;100.00
6345;BME280;3205;42.666;23.264;2023-03-16T12:43:59;94102.06;;;4.90;100.00
6345;BME280;3205;42.666;23.264;2023-03-16T12:46:31;94094.81;;;4.87;100.00
6345;BME280;3205;42.666;23.264;2023-03-16T12:49:01;94105.41;;;4.82;100.00
6345;BME280;3205;42.666;23.264;2023-03-16T12:51:33;94108.59;;;4.71;100.00
6345;BME280;3205;42.666;23.264;2023-03-16T12:53:59;94108.41;;;4.59;100.00
6345;BME280;3205;42.666;23.264;2023-03-16T12:56:29;94116.50;;;4.49;100.00
6345;BME280;3205;42.666;23.264;2023-03-16T12:58:57;94105.97;;;4.32;100.00
6345;BME280;3205;42.666;23.264;2023-03-16T13:01:26;94109.03;;;4.34;100.00
6345;BME280;3205;42.666;23.264;2023-03-16T13:03:59;94107.06;;;4.39;100.00
6345;BME280;3205;42.666;23.264;2023-03-16T13:06:31;94102.16;;;4.38;100.00
6345;BME280;3205;42.666;23.264;2023-03-16T13:08:59;94104.22;;;4.49;100.00
6345;BME280;3205;42.666;23.264;2023-03-16T13:11:26;94098.69;;;4.59;100.00
6345;BME280;3205;42.666;23.264;2023-03-16T13:14:05;94100.75;;;4.71;100.00
6345;BME280;3205;42.666;23.264;2023-03-16T13:16:35;94103.38;;;4.71;100.00
6345;BME280;3205;42.666;23.264;2023-03-16T13:19:20;94104.94;;;4.80;100.00
6345;BME280;3205;42.666;23.264;2023-03-16T13:22:00;94108.00;;;4.74;100.00
6345;BME280;3205;42.666;23.264;2023-03-16T13:24:34;94112.78;;;4.80;100.00